Terminal Aerodrome Forecast
Issued by NWS

Home | Current Version | Previous Version | Graphics & Text | Print | Product List | Glossary Off
Versions: 1 2 3 4 5 6 7 8 9 10 11 12 13

000
FTUS43 KDDC 181720
TAFHYS
TAF
KHYS 181720Z 1818/1918 33025G32KT P6SM SKC
     FM182100 33008KT P6SM SKC
     FM190300 28004KT P6SM SKC
     FM191200 24006KT P6SM SKC
     FM191500 21015G25KT P6SM SKC=

USA.gov is the U.S. government's official web portal to all federal, state and local government web resources and services.